createdAt,value
2018-11-20T00:01:12.024Z,64.08
2018-11-20T00:04:02.075Z,63.98
2018-11-20T00:06:46.278Z,64.02
2018-11-20T00:09:38.909Z,63.62
2018-11-20T00:12:34.492Z,63.59
2018-11-20T00:15:34.924Z,63.42
2018-11-20T00:18:23.145Z,62.98
2018-11-20T00:21:03.330Z,62.90
2018-11-20T00:23:51.952Z,62.31
2018-11-20T00:26:40.665Z,62.41
2018-11-20T00:29:42.393Z,62.08
2018-11-20T00:32:47.334Z,62.20
2018-11-20T00:35:52.163Z,61.62
2018-11-20T00:38:57.192Z,60.82
2018-11-20T00:41:47.166Z,61.15
2018-11-20T00:44:33.565Z,61.11
2018-11-20T00:47:29.068Z,61.29
2018-11-20T00:50:17.594Z,61.43
2018-11-20T00:53:06.162Z,61.25
2018-11-20T00:56:52.205Z,61.35
2018-11-20T01:00:00.915Z,61.72
2018-11-20T01:02:56.801Z,61.73
2018-11-20T01:05:35.314Z,61.85
2018-11-20T01:08:31.385Z,61.64
2018-11-20T01:11:19.806Z,61.68
2018-11-20T01:14:12.443Z,61.87
2018-11-20T01:17:04.994Z,61.94
2018-11-20T01:19:51.795Z,61.86
2018-11-20T01:22:48.008Z,62.20
2018-11-20T01:25:43.746Z,62.21
2018-11-20T01:28:45.614Z,62.49
2018-11-20T01:31:35.591Z,63.00
2018-11-20T01:34:14.584Z,63.48
2018-11-20T01:37:10.224Z,63.50
2018-11-20T01:39:51.564Z,63.57
2018-11-20T01:42:50.411Z,63.53
2018-11-20T01:45:43.027Z,63.55
2018-11-20T01:48:40.115Z,63.47
2018-11-20T01:51:28.394Z,63.38
2018-11-20T01:54:21.059Z,63.41
2018-11-20T01:57:13.665Z,63.42
2018-11-20T01:59:52.835Z,63.46
2018-11-20T02:02:42.802Z,63.48
2018-11-20T02:05:38.531Z,63.55
2018-11-20T02:08:26.933Z,63.71
2018-11-20T02:11:19.589Z,63.75
2018-11-20T02:14:29.605Z,63.63
2018-11-20T02:17:40.249Z,63.78
2018-11-20T02:20:27.826Z,63.68
2018-11-20T02:23:15.950Z,63.92
2018-11-20T02:26:04.353Z,63.95
2018-11-20T02:28:52.374Z,64.00
2018-11-20T02:31:42.356Z,64.06
2018-11-20T02:34:30.964Z,64.29
2018-11-20T02:37:29.738Z,64.39
2018-11-20T02:40:22.333Z,64.45
2018-11-20T02:43:12.311Z,64.47
2018-11-20T02:45:59.502Z,64.48
2018-11-20T02:48:48.152Z,64.64
2018-11-20T02:51:31.934Z,64.50
2018-11-20T02:54:20.243Z,64.57
2018-11-20T02:57:09.784Z,64.71
2018-11-20T02:59:52.791Z,64.66
2018-11-20T03:02:45.950Z,64.90
2018-11-20T03:05:35.880Z,64.81
2018-11-20T03:08:24.612Z,64.80
2018-11-20T03:11:13.248Z,64.89
2018-11-20T03:14:12.245Z,65.10
2018-11-20T03:17:07.951Z,65.15
2018-11-20T03:20:03.559Z,65.23
2018-11-20T03:22:56.153Z,65.25
2018-11-20T03:26:01.496Z,65.37
2018-11-20T03:29:10.712Z,65.59
2018-11-20T03:32:15.774Z,65.56
2018-11-20T03:35:04.391Z,65.62
2018-11-20T03:37:56.900Z,65.69
2018-11-20T03:40:58.882Z,65.79
2018-11-20T03:43:47.307Z,65.85
2018-11-20T03:46:55.034Z,65.94
2018-11-20T03:49:43.463Z,66.03
2018-11-20T03:52:35.106Z,66.09
2018-11-20T03:55:24.508Z,66.18
2018-11-20T03:58:23.150Z,66.04
2018-11-20T04:01:13.069Z,66.18
2018-11-20T04:04:01.399Z,66.21
2018-11-20T04:06:57.312Z,66.20
2018-11-20T04:09:40.809Z,66.41
2018-11-20T04:12:23.452Z,66.35
2018-11-20T04:15:31.264Z,66.42
2018-11-20T04:18:19.486Z,66.52
2018-11-20T04:21:08.079Z,66.52
2018-11-20T04:24:07.130Z,66.52
2018-11-20T04:26:46.084Z,66.61
2018-11-20T04:29:42.718Z,66.66
2018-11-20T04:32:29.100Z,66.67
2018-11-20T04:35:08.743Z,66.78
2018-11-20T04:38:01.387Z,66.80
2018-11-20T04:40:50.072Z,66.59
2018-11-20T04:43:45.780Z,67.02
2018-11-20T04:46:34.350Z,67.08
2018-11-20T04:49:15.698Z,67.00
2018-11-20T04:52:17.309Z,67.08
2018-11-20T04:55:05.492Z,66.87
2018-11-20T04:58:07.485Z,66.88
2018-11-20T05:00:57.446Z,66.99
2018-11-20T05:03:50.070Z,66.74
2018-11-20T05:06:43.372Z,66.67
2018-11-20T05:09:31.737Z,66.49
2018-11-20T05:12:20.343Z,66.45
2018-11-20T05:15:12.929Z,66.40
2018-11-20T05:18:01.265Z,66.16
2018-11-20T05:20:51.210Z,66.05
2018-11-20T05:23:30.103Z,65.91
2018-11-20T05:26:20.054Z,65.88
2018-11-20T05:29:08.397Z,65.96
2018-11-20T05:31:58.320Z,65.82
2018-11-20T05:34:48.276Z,65.84
2018-11-20T05:37:36.965Z,65.69
2018-11-20T05:40:26.225Z,65.49
2018-11-20T05:43:30.981Z,65.40
2018-11-20T05:46:20.888Z,65.45
2018-11-20T05:49:11.159Z,65.80
2018-11-20T05:52:09.924Z,65.62
2018-11-20T05:55:08.662Z,65.59
2018-11-20T05:57:57.035Z,65.33
2018-11-20T06:00:45.391Z,65.35
2018-11-20T06:03:41.334Z,65.30
2018-11-20T06:06:43.395Z,65.43
2018-11-20T06:09:42.346Z,65.54
2018-11-20T06:12:41.057Z,65.51
2018-11-20T06:15:31.160Z,65.48
2018-11-20T06:19:11.124Z,65.72
2018-11-20T06:22:19.109Z,65.66
2018-11-20T06:25:26.831Z,65.62
2018-11-20T06:28:34.842Z,65.42
2018-11-20T06:31:42.820Z,65.43
2018-11-20T06:34:50.859Z,65.40
2018-11-20T06:37:58.918Z,65.42
2018-11-20T06:41:06.996Z,65.43
2018-11-20T06:44:14.948Z,65.60
2018-11-20T06:47:23.038Z,65.58
2018-11-20T06:50:50.967Z,65.42
2018-11-20T06:53:58.984Z,65.46
2018-11-20T06:57:06.974Z,65.22
2018-11-20T07:00:14.993Z,65.49
2018-11-20T07:03:22.963Z,65.22
2018-11-20T07:06:30.971Z,65.42
2018-11-20T07:09:38.933Z,65.24
2018-11-20T07:12:46.976Z,65.18
2018-11-20T07:15:55.166Z,65.01
2018-11-20T07:19:03.039Z,64.76
2018-11-20T07:21:45.943Z,64.76
2018-11-20T07:25:50.929Z,64.74
2018-11-20T07:28:42.801Z,64.82
2018-11-20T07:31:30.581Z,64.79
2018-11-20T07:34:18.039Z,64.59
2018-11-20T07:37:05.718Z,64.72
2018-11-20T07:39:53.123Z,64.66
2018-11-20T07:42:42.047Z,64.66
2018-11-20T07:45:29.660Z,64.54
2018-11-20T07:48:33.527Z,64.65
2018-11-20T07:51:24.977Z,64.78
2018-11-20T07:54:28.850Z,64.39
2018-11-20T07:57:20.903Z,64.41
2018-11-20T08:00:21.571Z,64.32
2018-11-20T08:03:10.338Z,64.25
2018-11-20T08:05:55.864Z,64.05
2018-11-20T08:08:42.679Z,64.32
2018-11-20T08:11:30.049Z,64.34
2018-11-20T08:14:17.770Z,64.46
2018-11-20T08:17:05.201Z,64.54
2018-11-20T08:20:02.663Z,64.36
2018-11-20T08:23:01.254Z,64.41
2018-11-20T08:25:50.293Z,64.24
2018-11-20T08:28:41.761Z,64.32
2018-11-20T08:31:23.449Z,64.44
2018-11-20T08:34:18.455Z,64.26
2018-11-20T08:37:06.305Z,64.09
2018-11-20T08:39:53.741Z,64.31
2018-11-20T08:42:46.722Z,64.57
2018-11-20T08:45:34.226Z,64.74
2018-11-20T08:48:32.121Z,64.74
2018-11-20T08:51:21.564Z,64.49
2018-11-20T08:54:10.249Z,64.38
2018-11-20T08:56:57.488Z,64.56
2018-11-20T08:59:43.222Z,64.61
2018-11-20T09:02:32.205Z,64.50
2018-11-20T09:05:32.996Z,64.44
2018-11-20T09:08:33.983Z,64.60
2018-11-20T09:11:25.575Z,64.43
2018-11-20T09:14:12.983Z,64.49
2018-11-20T09:17:00.862Z,64.54
2018-11-20T09:19:48.309Z,64.64
2018-11-20T09:22:34.188Z,64.93
2018-11-20T09:25:22.939Z,64.54
2018-11-20T09:28:26.703Z,64.60
2018-11-20T09:31:16.028Z,64.77
2018-11-20T09:33:57.334Z,66.51
2018-11-20T09:36:54.920Z,64.37
2018-11-20T09:39:53.142Z,64.52
2018-11-20T09:42:42.754Z,64.65
2018-11-20T09:46:18.080Z,64.39
2018-11-20T09:49:15.809Z,64.75
2018-11-20T09:52:07.452Z,64.52
2018-11-20T09:55:02.097Z,64.73
2018-11-20T09:58:09.402Z,63.97
2018-11-20T10:00:57.059Z,64.38
2018-11-20T10:03:44.826Z,64.74
2018-11-20T10:06:23.216Z,64.60
2018-11-20T10:09:11.299Z,64.32
2018-11-20T10:11:59.365Z,64.46
2018-11-20T10:14:54.316Z,64.16
2018-11-20T10:17:57.845Z,64.28
2018-11-20T10:20:45.763Z,64.22
2018-11-20T10:23:27.339Z,63.96
2018-11-20T10:26:15.094Z,64.52
2018-11-20T10:28:58.876Z,66.42
2018-11-20T10:31:46.629Z,62.39
2018-11-20T10:34:36.023Z,63.01
2018-11-20T10:37:40.123Z,63.33
2018-11-20T10:40:21.318Z,63.12
2018-11-20T10:43:16.208Z,63.04
2018-11-20T10:46:03.588Z,63.31
2018-11-20T10:48:55.252Z,63.25
2018-11-20T10:51:32.844Z,63.46
2018-11-20T10:57:00.096Z,63.62
2018-11-20T10:59:57.923Z,63.56
2018-11-20T11:02:45.488Z,63.18
2018-11-20T11:05:49.859Z,63.20
2018-11-20T11:08:38.058Z,62.49
2018-11-20T11:11:25.777Z,62.51
2018-11-20T11:14:17.624Z,62.96
2018-11-20T11:17:05.121Z,63.29
2018-11-20T11:19:56.988Z,62.89
2018-11-20T11:22:46.623Z,62.85
2018-11-20T11:25:47.440Z,63.14
2018-11-20T11:28:45.296Z,63.45
2018-11-20T11:31:33.362Z,63.15
2018-11-20T11:34:22.197Z,63.27
2018-11-20T11:37:10.977Z,63.64
2018-11-20T11:40:02.634Z,63.46
2018-11-20T11:43:03.659Z,63.64
2018-11-20T11:45:51.269Z,63.35
2018-11-20T11:48:40.258Z,63.31
2018-11-20T11:51:27.915Z,63.83
2018-11-20T11:54:22.453Z,63.68
2018-11-20T11:57:11.985Z,64.02
2018-11-20T12:00:13.124Z,63.73
2018-11-20T12:05:50.084Z,63.95
2018-11-20T12:08:50.795Z,64.17
2018-11-20T12:11:57.776Z,64.60
2018-11-20T12:14:44.123Z,64.50
2018-11-20T12:17:42.123Z,64.62
2018-11-20T12:20:30.949Z,64.49
2018-11-20T12:23:15.385Z,64.64
2018-11-20T12:25:54.627Z,64.39
2018-11-20T12:28:53.130Z,64.29
2018-11-20T12:31:37.302Z,64.20
2018-11-20T12:34:25.026Z,64.16
2018-11-20T12:37:04.478Z,64.64
2018-11-20T12:39:50.634Z,64.68
2018-11-20T12:42:42.148Z,64.40
2018-11-20T12:45:34.393Z,64.64
2018-11-20T12:48:35.023Z,64.72
2018-11-20T12:51:22.692Z,64.80
2018-11-20T12:54:14.767Z,64.98
2018-11-20T12:57:15.235Z,65.12
2018-11-20T13:00:10.052Z,65.23
2018-11-20T13:03:07.914Z,65.22
2018-11-20T13:05:59.837Z,65.27
2018-11-20T13:09:01.254Z,65.24
2018-11-20T13:12:05.163Z,65.29
2018-11-20T13:15:02.799Z,65.11
2018-11-20T13:18:00.884Z,65.31
2018-11-20T13:20:50.421Z,65.27
2018-11-20T13:23:35.709Z,65.26
2018-11-20T13:26:24.555Z,65.66
2018-11-20T13:29:24.521Z,65.42
2018-11-20T13:32:11.795Z,65.48
2018-11-20T13:35:03.215Z,65.77
2018-11-20T13:37:52.259Z,65.64
2018-11-20T13:41:30.986Z,65.71
2018-11-20T13:44:19.999Z,65.30
2018-11-20T13:47:07.362Z,65.53
2018-11-20T13:49:55.308Z,64.90
2018-11-20T13:52:43.204Z,65.22
2018-11-20T13:55:41.061Z,65.12
2018-11-20T13:58:28.720Z,65.49
2018-11-20T14:01:17.482Z,65.41
2018-11-20T14:04:05.223Z,65.52
2018-11-20T14:06:52.855Z,65.57
2018-11-20T14:09:41.856Z,65.88
2018-11-20T14:12:42.550Z,65.79
2018-11-20T14:15:40.445Z,66.02
2018-11-20T14:18:27.669Z,65.90
2018-11-20T14:21:22.504Z,66.14
2018-11-20T14:24:10.330Z,66.35
2018-11-20T14:26:57.987Z,66.42
2018-11-20T14:30:04.924Z,66.48
2018-11-20T14:32:57.718Z,66.25
2018-11-20T14:35:49.512Z,66.64
2018-11-20T14:38:44.440Z,66.79
2018-11-20T14:41:45.524Z,66.47
2018-11-20T14:44:49.263Z,66.62
2018-11-20T14:47:36.636Z,67.20
2018-11-20T14:50:20.278Z,66.83
2018-11-20T14:53:07.850Z,66.88
2018-11-20T14:55:58.567Z,66.72
2018-11-20T14:58:34.390Z,66.62
2018-11-20T15:01:27.874Z,69.49
2018-11-20T15:04:16.623Z,66.86
2018-11-20T15:07:20.468Z,66.72
2018-11-20T15:10:01.823Z,66.75
2018-11-20T15:12:48.718Z,66.53
2018-11-20T15:15:37.187Z,66.46
2018-11-20T15:18:44.041Z,67.71
2018-11-20T15:21:26.286Z,65.96
2018-11-20T15:24:21.383Z,66.28
2018-11-20T15:27:08.845Z,66.44
2018-11-20T15:29:54.915Z,66.05
2018-11-20T15:32:43.065Z,65.74
2018-11-20T15:35:30.755Z,65.65
2018-11-20T15:38:15.843Z,65.81
2018-11-20T15:40:56.405Z,65.88
2018-11-20T15:44:00.208Z,65.81
2018-11-20T15:46:51.945Z,65.73
2018-11-20T15:49:59.002Z,65.83
2018-11-20T15:52:53.566Z,65.78
2018-11-20T15:55:42.853Z,65.77
2018-11-20T15:58:21.670Z,66.00
2018-11-20T16:01:25.785Z,66.08
2018-11-20T16:04:32.632Z,66.33
2018-11-20T16:07:33.670Z,66.71
2018-11-20T16:10:18.939Z,66.96
2018-11-20T16:13:07.744Z,66.83
2018-11-20T16:15:56.574Z,67.28
2018-11-20T16:18:44.160Z,67.13
2018-11-20T16:21:40.636Z,67.49
2018-11-20T16:24:38.298Z,67.83
2018-11-20T16:27:39.268Z,68.33
2018-11-20T16:30:30.311Z,68.75
2018-11-20T16:33:30.987Z,69.23
2018-11-20T16:36:28.972Z,69.59
2018-11-20T16:39:36.022Z,69.95
2018-11-20T16:42:13.754Z,70.43
2018-11-20T16:45:02.985Z,71.05
2018-11-20T16:47:52.060Z,71.77
2018-11-20T16:50:40.088Z,72.45
2018-11-20T16:53:32.173Z,72.69
2018-11-20T16:56:19.969Z,73.00
2018-11-20T16:59:07.415Z,73.57
2018-11-20T17:02:05.090Z,74.09
2018-11-20T17:05:00.157Z,73.49
2018-11-20T17:08:04.166Z,73.85
2018-11-20T17:10:55.744Z,74.74
2018-11-20T17:13:43.303Z,75.13
2018-11-20T17:16:32.011Z,75.65
2018-11-20T17:19:27.001Z,75.72
2018-11-20T17:22:16.282Z,75.96
2018-11-20T17:25:14.211Z,76.16
2018-11-20T17:28:15.298Z,76.02
2018-11-20T17:31:22.655Z,75.89
2018-11-20T17:34:10.617Z,76.04
2018-11-20T17:36:51.453Z,76.52
2018-11-20T17:39:46.436Z,76.50
2018-11-20T17:42:33.784Z,76.68
2018-11-20T17:45:40.983Z,76.68
2018-11-20T17:48:28.283Z,76.82
2018-11-20T17:51:22.986Z,76.92
2018-11-20T17:54:04.116Z,76.58
2018-11-20T17:56:52.951Z,76.50
2018-11-20T17:59:41.762Z,76.45
2018-11-20T18:05:05.384Z,76.57
2018-11-20T18:08:12.444Z,76.59
2018-11-20T18:11:01.258Z,76.34
2018-11-20T18:13:48.906Z,76.53
2018-11-20T18:16:35.176Z,76.57
2018-11-20T18:19:26.686Z,76.64
2018-11-20T18:22:13.955Z,77.00
2018-11-20T18:25:02.015Z,76.84
2018-11-20T18:27:53.796Z,76.65
2018-11-20T18:30:45.423Z,76.54
2018-11-20T18:33:32.677Z,76.31
2018-11-20T18:36:21.010Z,76.42
2018-11-20T18:39:08.520Z,76.35
2018-11-20T18:41:55.966Z,76.49
2018-11-20T18:44:43.488Z,76.81
2018-11-20T18:47:35.248Z,77.07
2018-11-20T18:50:21.261Z,77.31
2018-11-20T18:53:25.572Z,77.46
2018-11-20T18:56:13.142Z,77.09
2018-11-20T18:59:05.180Z,77.00
2018-11-20T19:01:56.990Z,77.13
2018-11-20T19:04:44.637Z,76.87
2018-11-20T19:07:33.513Z,76.97
2018-11-20T19:10:22.376Z,76.99
2018-11-20T19:13:20.237Z,76.83
2018-11-20T19:16:20.846Z,77.12
2018-11-20T19:19:09.575Z,76.67
2018-11-20T19:21:56.843Z,76.58
2018-11-20T19:24:48.531Z,76.35
2018-11-20T19:27:43.168Z,76.50
2018-11-20T19:30:30.652Z,76.50
2018-11-20T19:33:25.381Z,76.65
2018-11-20T19:36:15.977Z,76.57
2018-11-20T19:39:07.377Z,76.94
2018-11-20T19:41:59.303Z,76.60
2018-11-20T19:44:48.412Z,76.38
2018-11-20T19:47:49.484Z,76.25
2018-11-20T19:50:48.941Z,76.16
2018-11-20T19:53:36.688Z,75.95
2018-11-20T19:56:26.108Z,75.46
2018-11-20T19:59:17.576Z,75.56
2018-11-20T20:02:06.416Z,75.63
2018-11-20T20:04:54.227Z,75.25
2018-11-20T20:07:39.153Z,75.67
2018-11-20T20:10:22.702Z,75.93
2018-11-20T20:13:10.346Z,75.51
2018-11-20T20:15:57.980Z,75.56
2018-11-20T20:18:38.013Z,75.13
2018-11-20T20:21:25.832Z,75.02
2018-11-20T20:24:32.948Z,74.97
2018-11-20T20:27:20.829Z,74.70
2018-11-20T20:30:15.548Z,75.04
2018-11-20T20:33:01.784Z,74.78
2018-11-20T20:36:06.026Z,74.78
2018-11-20T20:38:59.341Z,74.91
2018-11-20T20:41:53.262Z,74.53
2018-11-20T20:44:47.937Z,74.46
2018-11-20T20:47:45.796Z,74.58
2018-11-20T20:50:27.275Z,74.35
2018-11-20T20:53:28.079Z,74.35
2018-11-20T20:56:19.782Z,74.14
2018-11-20T20:59:06.997Z,74.67
2018-11-20T21:01:54.012Z,74.88
2018-11-20T21:04:48.351Z,74.63
2018-11-20T21:07:35.851Z,74.91
2018-11-20T21:10:28.212Z,75.08
2018-11-20T21:13:18.714Z,75.50
2018-11-20T21:16:16.933Z,75.59
2018-11-20T21:19:05.695Z,75.62
2018-11-20T21:21:57.497Z,75.89
2018-11-20T21:24:54.409Z,76.38
2018-11-20T21:27:43.241Z,76.09
2018-11-20T21:30:30.884Z,76.23
2018-11-20T21:33:17.243Z,76.17
2018-11-20T21:36:05.051Z,76.52
2018-11-20T21:38:59.504Z,76.75
2018-11-20T21:41:46.951Z,77.03
2018-11-20T21:44:51.118Z,77.03
2018-11-20T21:47:45.813Z,77.42
2018-11-20T21:50:37.493Z,77.53
2018-11-20T21:53:25.102Z,77.65
2018-11-20T21:56:12.594Z,77.31
2018-11-20T21:59:07.476Z,77.17
2018-11-20T22:01:56.384Z,77.07
2018-11-20T22:04:43.733Z,77.48
2018-11-20T22:07:41.466Z,77.49
2018-11-20T22:10:36.414Z,77.96
2018-11-20T22:13:24.076Z,77.49
2018-11-20T22:16:11.786Z,77.33
2018-11-20T22:18:59.305Z,77.11
2018-11-20T22:21:53.673Z,76.95
2018-11-20T22:24:45.279Z,77.04
2018-11-20T22:27:37.224Z,77.15
2018-11-20T22:30:31.593Z,76.71
2018-11-20T22:33:26.084Z,76.78
2018-11-20T22:36:15.027Z,76.76
2018-11-20T22:39:03.741Z,76.67
2018-11-20T22:41:53.424Z,76.98
2018-11-20T22:44:51.172Z,76.96
2018-11-20T22:47:38.671Z,76.46
2018-11-20T22:50:36.222Z,76.65
2018-11-20T22:53:34.384Z,76.83
2018-11-20T22:56:16.394Z,76.61
2018-11-20T22:59:07.921Z,76.74
2018-11-20T23:01:59.421Z,77.24
2018-11-20T23:05:04.470Z,77.12
2018-11-20T23:07:59.009Z,77.54
2018-11-20T23:10:29.471Z,77.39
2018-11-20T23:12:59.454Z,77.59
2018-11-20T23:15:29.297Z,77.75
2018-11-20T23:17:59.194Z,77.57
2018-11-20T23:20:29.229Z,77.81
2018-11-20T23:22:59.041Z,77.80
2018-11-20T23:25:28.858Z,77.77
2018-11-20T23:27:59.020Z,77.89
2018-11-20T23:30:28.883Z,77.90
2018-11-20T23:32:58.684Z,77.84
2018-11-20T23:35:28.529Z,77.97
2018-11-20T23:37:58.342Z,77.83
2018-11-20T23:40:28.211Z,78.11
2018-11-20T23:42:58.014Z,78.02
2018-11-20T23:45:27.896Z,77.90
2018-11-20T23:47:57.687Z,78.00
2018-11-20T23:50:27.476Z,78.15
2018-11-20T23:52:57.307Z,78.11
2018-11-20T23:55:27.093Z,78.05
2018-11-20T23:57:57.031Z,78.26
